createdAt,value
2018-08-27T00:00:10.473Z,88.60
2018-08-27T00:02:38.891Z,88.70
2018-08-27T00:05:07.331Z,88.80
2018-08-27T00:07:35.800Z,86.60
2018-08-27T00:10:04.373Z,85.80
2018-08-27T00:12:32.829Z,89.40
2018-08-27T00:15:01.281Z,90.30
2018-08-27T00:17:29.981Z,90.50
2018-08-27T00:19:58.422Z,90.00
2018-08-27T00:22:28.651Z,90.50
2018-08-27T00:24:57.151Z,90.60
2018-08-27T00:27:25.634Z,91.20
2018-08-27T00:29:54.119Z,91.30
2018-08-27T00:32:22.561Z,91.40
2018-08-27T00:34:50.992Z,91.10
2018-08-27T00:37:19.424Z,92.10
2018-08-27T00:39:47.905Z,91.80
2018-08-27T00:42:16.401Z,92.70
2018-08-27T00:44:44.872Z,92.30
2018-08-27T00:47:13.357Z,92.60
2018-08-27T00:49:41.800Z,93.00
2018-08-27T00:52:10.292Z,92.90
2018-08-27T00:54:38.772Z,92.10
2018-08-27T00:57:07.419Z,93.00
2018-08-27T00:59:35.861Z,91.70
2018-08-27T01:02:04.325Z,91.60
2018-08-27T01:04:32.801Z,93.10
2018-08-27T01:07:01.245Z,92.40
2018-08-27T01:09:29.745Z,92.90
2018-08-27T01:11:58.276Z,93.30
2018-08-27T01:14:26.715Z,93.90
2018-08-27T01:16:55.152Z,93.40
2018-08-27T01:19:23.595Z,93.60
2018-08-27T01:21:52.187Z,93.90
2018-08-27T01:24:20.645Z,94.00
2018-08-27T01:26:49.058Z,94.10
2018-08-27T01:29:17.493Z,94.10
2018-08-27T01:31:51.141Z,93.90
2018-08-27T01:34:19.737Z,93.80
2018-08-27T01:36:48.211Z,94.00
2018-08-27T01:39:16.729Z,95.00
2018-08-27T01:41:45.201Z,95.30
2018-08-27T01:44:13.987Z,95.80
2018-08-27T01:46:42.491Z,95.30
2018-08-27T01:49:10.923Z,95.50
2018-08-27T01:51:39.380Z,95.50
2018-08-27T01:54:07.869Z,96.30
2018-08-27T01:56:36.311Z,95.70
2018-08-27T01:59:04.773Z,96.40
2018-08-27T02:01:33.294Z,95.30
2018-08-27T02:04:01.922Z,95.60
2018-08-27T02:06:36.635Z,95.30
2018-08-27T02:09:07.437Z,95.80
2018-08-27T02:11:36.595Z,96.70
2018-08-27T02:14:05.362Z,95.70
2018-08-27T02:16:34.005Z,95.20
2018-08-27T02:19:02.499Z,95.00
2018-08-27T02:21:30.956Z,96.00
2018-08-27T02:23:59.385Z,96.20
2018-08-27T02:26:28.393Z,96.30
2018-08-27T02:28:56.885Z,96.00
2018-08-27T02:31:25.328Z,96.30
2018-08-27T02:33:53.862Z,95.50
2018-08-27T02:36:22.289Z,96.00
2018-08-27T02:38:50.776Z,96.00
2018-08-27T02:41:19.246Z,96.80
2018-08-27T02:43:50.388Z,96.70
2018-08-27T02:46:19.388Z,96.30
2018-08-27T02:48:47.926Z,96.80
2018-08-27T02:51:16.332Z,97.30
2018-08-27T02:53:44.943Z,96.90
2018-08-27T02:56:13.378Z,96.70
2018-08-27T02:58:41.845Z,97.30
2018-08-27T03:01:10.282Z,97.80
2018-08-27T03:03:38.716Z,98.00
2018-08-27T03:06:07.238Z,97.80
2018-08-27T03:08:35.762Z,98.30
2018-08-27T03:11:04.186Z,98.40
2018-08-27T03:13:33.177Z,98.40
2018-08-27T03:16:01.706Z,98.40
2018-08-27T03:18:30.237Z,98.20
2018-08-27T03:20:58.569Z,98.50
2018-08-27T03:23:27.115Z,98.40
2018-08-27T03:25:55.577Z,98.10
2018-08-27T03:28:23.991Z,98.70
2018-08-27T03:30:52.493Z,97.80
2018-08-27T03:33:21.099Z,99.10
2018-08-27T03:35:49.710Z,97.70
2018-08-27T03:38:18.156Z,98.80
2018-08-27T03:40:46.707Z,99.10
2018-08-27T03:43:15.087Z,99.10
2018-08-27T03:45:43.485Z,99.50
2018-08-27T03:48:12.873Z,99.00
2018-08-27T03:50:41.344Z,99.40
2018-08-27T03:53:09.973Z,98.50
2018-08-27T03:55:38.692Z,98.50
2018-08-27T03:58:07.233Z,98.90
2018-08-27T04:00:35.871Z,98.90
2018-08-27T04:03:04.741Z,98.90
2018-08-27T04:05:33.219Z,99.60
2018-08-27T04:08:01.657Z,99.70
2018-08-27T04:10:30.292Z,99.80
2018-08-27T04:12:58.756Z,99.70
2018-08-27T04:15:27.211Z,99.40
2018-08-27T04:17:55.694Z,99.20
2018-08-27T04:20:24.127Z,99.00
2018-08-27T04:22:52.579Z,99.40
2018-08-27T04:25:21.011Z,99.80
2018-08-27T04:27:49.773Z,98.70
2018-08-27T04:30:18.357Z,99.30
2018-08-27T04:32:46.809Z,99.50
2018-08-27T04:35:16.173Z,99.60
2018-08-27T04:37:44.623Z,99.00
2018-08-27T04:40:13.053Z,99.60
2018-08-27T04:42:41.602Z,99.40
2018-08-27T04:45:10.015Z,99.60
2018-08-27T04:47:38.934Z,99.70
2018-08-27T04:50:07.431Z,99.90
2018-08-27T04:52:35.897Z,99.90
2018-08-27T04:55:04.777Z,99.70
2018-08-27T04:57:33.185Z,99.70
2018-08-27T05:00:05.385Z,99.90
2018-08-27T05:02:33.970Z,99.90
2018-08-27T05:05:02.633Z,99.50
2018-08-27T05:07:31.117Z,99.90
2018-08-27T05:09:59.575Z,99.90
2018-08-27T05:12:28.000Z,99.90
2018-08-27T05:14:56.456Z,99.70
2018-08-27T05:17:24.932Z,99.80
2018-08-27T05:19:53.380Z,99.80
2018-08-27T05:22:21.784Z,99.90
2018-08-27T05:24:50.256Z,99.70
2018-08-27T05:27:19.332Z,99.60
2018-08-27T05:29:47.778Z,99.90
2018-08-27T05:32:16.228Z,99.90
2018-08-27T05:34:47.219Z,99.90
2018-08-27T05:37:20.801Z,99.80
2018-08-27T05:39:50.360Z,99.70
2018-08-27T05:42:19.603Z,99.50
2018-08-27T05:44:48.043Z,99.70
2018-08-27T05:47:21.423Z,99.40
2018-08-27T05:49:50.894Z,99.20
2018-08-27T05:52:19.405Z,99.10
2018-08-27T05:54:48.955Z,99.20
2018-08-27T05:57:18.771Z,99.30
2018-08-27T05:59:47.205Z,99.30
2018-08-27T06:02:15.689Z,98.70
2018-08-27T06:04:51.670Z,98.50
2018-08-27T06:07:23.360Z,98.50
2018-08-27T06:09:53.800Z,98.20
2018-08-27T06:12:22.291Z,98.00
2018-08-27T06:14:50.773Z,97.90
2018-08-27T06:17:24.041Z,97.90
2018-08-27T06:19:53.813Z,97.80
2018-08-27T06:22:22.329Z,97.90
2018-08-27T06:24:51.672Z,97.80
2018-08-27T06:27:25.091Z,97.70
2018-08-27T06:29:59.599Z,97.80
2018-08-27T06:32:28.370Z,97.70
2018-08-27T06:34:56.783Z,97.80
2018-08-27T06:37:26.713Z,97.80
2018-08-27T06:40:00.854Z,97.90
2018-08-27T06:42:34.812Z,97.50
2018-08-27T06:45:04.287Z,97.60
2018-08-27T06:47:32.708Z,97.40
2018-08-27T06:50:01.356Z,97.10
2018-08-27T06:52:34.700Z,96.60
2018-08-27T06:55:09.405Z,96.20
2018-08-27T06:57:42.924Z,96.10
2018-08-27T07:00:16.025Z,96.20
2018-08-27T07:02:44.509Z,96.20
2018-08-27T07:05:13.088Z,95.70
2018-08-27T07:07:42.601Z,95.60
2018-08-27T07:10:11.479Z,95.70
2018-08-27T07:12:42.857Z,96.20
2018-08-27T07:15:12.267Z,96.30
2018-08-27T07:17:45.869Z,95.70
2018-08-27T07:20:14.490Z,95.80
2018-08-27T07:22:42.980Z,95.60
2018-08-27T07:25:11.405Z,95.30
2018-08-27T07:27:45.353Z,95.00
2018-08-27T07:30:16.248Z,94.80
2018-08-27T07:32:45.749Z,94.80
2018-08-27T07:35:14.241Z,94.70
2018-08-27T07:37:48.487Z,94.50
2018-08-27T07:40:23.881Z,94.40
2018-08-27T07:42:53.715Z,93.40
2018-08-27T07:45:22.191Z,94.00
2018-08-27T07:47:50.634Z,93.90
2018-08-27T07:50:22.857Z,93.30
2018-08-27T07:52:55.956Z,93.30
2018-08-27T07:55:27.023Z,93.70
2018-08-27T07:57:55.808Z,93.20
2018-08-27T08:00:25.366Z,92.90
2018-08-27T08:02:57.983Z,93.10
2018-08-27T08:05:30.069Z,93.30
2018-08-27T08:07:58.612Z,93.40
2018-08-27T08:10:28.437Z,93.20
2018-08-27T08:13:00.617Z,93.40
2018-08-27T08:15:33.232Z,93.60
2018-08-27T08:18:05.137Z,92.90
2018-08-27T08:20:33.879Z,92.90
2018-08-27T08:23:02.302Z,93.40
2018-08-27T08:25:32.760Z,93.70
2018-08-27T08:28:05.880Z,93.90
2018-08-27T08:30:36.700Z,93.80
2018-08-27T08:33:05.738Z,93.30
2018-08-27T08:35:34.657Z,92.80
2018-08-27T08:38:03.880Z,92.60
2018-08-27T08:40:32.432Z,92.90
2018-08-27T08:43:01.446Z,92.90
2018-08-27T08:45:30.931Z,93.10
2018-08-27T08:47:59.432Z,92.80
2018-08-27T08:50:28.844Z,93.00
2018-08-27T08:53:02.820Z,92.50
2018-08-27T08:55:36.072Z,92.70
2018-08-27T08:58:09.263Z,92.00
2018-08-27T09:03:10.850Z,92.10
2018-08-27T09:05:39.458Z,91.90
2018-08-27T09:08:11.399Z,92.10
2018-08-27T09:10:43.985Z,92.60
2018-08-27T09:13:15.388Z,91.90
2018-08-27T09:15:43.821Z,91.50
2018-08-27T09:18:13.202Z,91.80
2018-08-27T09:20:47.501Z,92.30
2018-08-27T09:23:20.539Z,92.80
2018-08-27T09:25:49.886Z,92.50
2018-08-27T09:28:18.380Z,91.70
2018-08-27T09:30:48.283Z,91.20
2018-08-27T09:33:23.614Z,90.30
2018-08-27T09:35:55.484Z,90.40
2018-08-27T09:38:24.236Z,90.40
2018-08-27T09:40:52.726Z,90.40
2018-08-27T09:43:23.209Z,90.20
2018-08-27T09:45:56.632Z,90.00
2018-08-27T09:48:30.280Z,89.80
2018-08-27T09:51:00.117Z,89.10
2018-08-27T09:53:28.852Z,89.00
2018-08-27T09:56:00.227Z,88.60
2018-08-27T09:58:31.513Z,88.90
2018-08-27T10:01:05.150Z,88.30
2018-08-27T10:03:34.427Z,87.80
2018-08-27T10:06:02.912Z,87.60
2018-08-27T10:08:31.858Z,86.60
2018-08-27T10:11:02.216Z,86.00
2018-08-27T10:13:30.695Z,85.80
2018-08-27T10:16:01.113Z,85.40
2018-08-27T10:18:34.966Z,86.20
2018-08-27T10:21:05.962Z,86.30
2018-08-27T10:23:34.864Z,85.70
2018-08-27T10:26:03.905Z,85.80
2018-08-27T10:28:33.465Z,85.50
2018-08-27T10:31:02.176Z,84.90
2018-08-27T10:33:30.751Z,84.10
2018-08-27T10:36:03.227Z,83.30
2018-08-27T10:38:38.137Z,82.90
2018-08-27T10:41:12.382Z,82.80
2018-08-27T10:43:44.613Z,82.70
2018-08-27T10:46:18.545Z,82.50
2018-08-27T10:48:51.588Z,81.00
2018-08-27T10:51:21.087Z,78.60
2018-08-27T10:53:50.278Z,78.40
2018-08-27T10:56:22.044Z,79.20
2018-08-27T10:58:54.299Z,80.00
2018-08-27T11:01:27.497Z,80.70
2018-08-27T11:03:56.956Z,80.80
2018-08-27T11:06:25.505Z,80.70
2018-08-27T11:08:55.232Z,78.60
2018-08-27T11:11:28.793Z,75.90
2018-08-27T11:14:01.920Z,74.90
2018-08-27T11:16:36.365Z,73.40
2018-08-27T11:19:11.062Z,70.50
2018-08-27T11:21:44.474Z,70.50
2018-08-27T11:24:18.326Z,71.20
2018-08-27T11:26:48.019Z,71.20
2018-08-27T11:29:18.025Z,71.30
2018-08-27T11:31:47.359Z,71.30
2018-08-27T11:34:20.282Z,69.60
2018-08-27T11:36:53.656Z,70.90
2018-08-27T11:39:28.762Z,71.90
2018-08-27T11:42:02.005Z,72.10
2018-08-27T11:44:34.944Z,71.70
2018-08-27T11:47:04.838Z,71.00
2018-08-27T11:49:33.347Z,70.60
2018-08-27T11:52:06.558Z,70.00
2018-08-27T11:54:40.276Z,69.70
2018-08-27T11:57:10.739Z,68.70
2018-08-27T11:59:44.056Z,69.50
2018-08-27T12:02:18.130Z,68.10
2018-08-27T12:04:46.702Z,67.20
2018-08-27T12:07:15.188Z,67.10
2018-08-27T12:09:48.906Z,67.70
2018-08-27T12:12:21.300Z,66.70
2018-08-27T12:14:54.657Z,65.40
2018-08-27T12:17:27.086Z,66.30
2018-08-27T12:19:55.761Z,66.50
2018-08-27T12:22:24.990Z,67.30
2018-08-27T12:24:55.478Z,67.70
2018-08-27T12:27:27.401Z,68.60
2018-08-27T12:29:55.924Z,69.70
2018-08-27T12:32:24.575Z,69.40
2018-08-27T12:34:53.561Z,69.00
2018-08-27T12:37:22.236Z,69.30
2018-08-27T12:39:51.143Z,69.80
2018-08-27T12:42:22.710Z,69.80
2018-08-27T12:44:51.877Z,69.10
2018-08-27T12:47:21.447Z,68.00
2018-08-27T12:49:50.785Z,67.90
2018-08-27T12:52:23.096Z,68.30
2018-08-27T12:54:51.607Z,68.40
2018-08-27T12:57:20.110Z,69.00
2018-08-27T12:59:50.287Z,68.30
2018-08-27T13:02:19.082Z,67.90
2018-08-27T13:04:47.642Z,68.30
2018-08-27T13:07:18.954Z,67.60
2018-08-27T13:09:52.350Z,67.90
2018-08-27T13:12:21.179Z,68.00
2018-08-27T13:14:49.693Z,67.10
2018-08-27T13:17:19.551Z,67.30
2018-08-27T13:19:52.291Z,66.30
2018-08-27T13:22:21.818Z,65.50
2018-08-27T13:24:50.296Z,64.90
2018-08-27T13:27:21.921Z,64.50
2018-08-27T13:29:54.914Z,64.40
2018-08-27T13:32:28.419Z,62.40
2018-08-27T13:34:57.675Z,62.70
2018-08-27T13:37:26.191Z,62.20
2018-08-27T13:44:49.533Z,60.60
2018-08-27T13:47:22.809Z,60.10
2018-08-27T13:49:57.286Z,60.30
2018-08-27T13:52:33.067Z,59.30
2018-08-27T13:55:05.595Z,58.40
2018-08-27T13:57:38.625Z,58.30
2018-08-27T14:00:17.816Z,58.60
2018-08-27T14:02:48.063Z,58.70
2018-08-27T14:05:19.081Z,58.60
2018-08-27T14:10:21.237Z,57.30
2018-08-27T14:12:49.810Z,56.30
2018-08-27T14:15:21.693Z,56.70
2018-08-27T14:17:52.695Z,56.50
2018-08-27T14:20:21.208Z,56.20
2018-08-27T14:22:49.930Z,56.70
2018-08-27T14:25:24.580Z,55.80
2018-08-27T14:27:55.492Z,55.60
2018-08-27T14:30:23.956Z,57.00
2018-08-27T14:32:53.752Z,57.90
2018-08-27T14:35:25.096Z,57.80
2018-08-27T14:37:58.079Z,58.50
2018-08-27T14:40:28.091Z,58.60
2018-08-27T14:42:56.555Z,59.00
2018-08-27T14:45:25.031Z,58.80
2018-08-27T14:47:53.542Z,59.20
2018-08-27T14:50:22.013Z,58.80
2018-08-27T14:52:50.798Z,58.90
2018-08-27T14:55:21.809Z,58.20
2018-08-27T14:57:50.545Z,58.90
2018-08-27T15:00:19.033Z,59.40
2018-08-27T15:02:47.721Z,59.90
2018-08-27T15:05:16.304Z,59.30
2018-08-27T15:07:44.759Z,58.80
2018-08-27T15:10:13.375Z,59.50
2018-08-27T15:12:41.793Z,59.60
2018-08-27T15:15:10.252Z,59.90
2018-08-27T15:17:41.038Z,60.20
2018-08-27T15:20:09.738Z,59.90
2018-08-27T15:22:38.236Z,60.70
2018-08-27T15:25:07.447Z,60.80
2018-08-27T15:27:37.071Z,60.50
2018-08-27T15:30:06.321Z,59.80
2018-08-27T15:32:34.786Z,59.70
2018-08-27T15:35:03.249Z,58.70
2018-08-27T15:37:32.090Z,60.20
2018-08-27T15:40:00.723Z,60.50
2018-08-27T15:42:30.639Z,60.40
2018-08-27T15:45:03.541Z,60.20
2018-08-27T15:47:32.001Z,60.10
2018-08-27T15:50:00.473Z,60.10
2018-08-27T15:52:29.317Z,58.90
2018-08-27T15:54:57.771Z,58.50
2018-08-27T15:57:26.544Z,59.20
2018-08-27T15:59:54.925Z,59.20
2018-08-27T16:02:23.378Z,59.50
2018-08-27T16:04:51.853Z,58.60
2018-08-27T16:07:20.551Z,58.90
2018-08-27T16:09:49.080Z,59.50
2018-08-27T16:12:17.732Z,60.70
2018-08-27T16:14:46.308Z,61.70
2018-08-27T16:17:14.811Z,61.50
2018-08-27T16:19:43.273Z,62.00
2018-08-27T16:22:11.972Z,62.30
2018-08-27T16:24:40.732Z,61.40
2018-08-27T16:27:11.120Z,61.70
2018-08-27T16:29:40.382Z,61.30
2018-08-27T16:32:09.163Z,61.20
2018-08-27T16:34:37.816Z,61.50
2018-08-27T16:37:06.862Z,61.00
2018-08-27T16:39:35.532Z,61.40
2018-08-27T16:42:04.013Z,61.50
2018-08-27T16:44:32.480Z,61.20
2018-08-27T16:47:00.928Z,61.30
2018-08-27T16:49:29.408Z,61.70
2018-08-27T16:51:57.917Z,61.80
2018-08-27T16:54:26.896Z,62.30
2018-08-27T16:56:55.519Z,62.40
2018-08-27T16:59:24.221Z,62.80
2018-08-27T17:01:53.003Z,63.60
2018-08-27T17:04:21.581Z,64.00
2018-08-27T17:06:50.041Z,64.40
2018-08-27T17:09:18.507Z,65.10
2018-08-27T17:11:47.047Z,65.40
2018-08-27T17:14:15.662Z,65.60
2018-08-27T17:16:44.141Z,65.90
2018-08-27T17:19:13.061Z,66.30
2018-08-27T17:21:41.673Z,66.80
2018-08-27T17:24:10.209Z,66.80
2018-08-27T17:26:38.787Z,67.10
2018-08-27T17:29:07.348Z,67.30
2018-08-27T17:31:35.870Z,67.60
2018-08-27T17:34:04.611Z,67.80
2018-08-27T17:36:33.087Z,67.60
2018-08-27T17:39:03.061Z,67.90
2018-08-27T17:41:31.520Z,68.00
2018-08-27T17:44:00.066Z,68.60
2018-08-27T17:46:28.887Z,68.90
2018-08-27T17:48:57.398Z,69.20
2018-08-27T17:51:26.064Z,69.50
2018-08-27T17:53:54.598Z,69.90
2018-08-27T17:56:23.490Z,70.40
2018-08-27T17:58:52.000Z,71.00
2018-08-27T18:01:20.524Z,71.50
2018-08-27T18:03:48.965Z,72.80
2018-08-27T18:06:17.963Z,72.40
2018-08-27T18:08:46.896Z,73.10
2018-08-27T18:11:15.972Z,73.20
2018-08-27T18:13:45.825Z,73.50
2018-08-27T18:16:14.308Z,73.40
2018-08-27T18:18:42.771Z,73.70
2018-08-27T18:21:11.303Z,73.90
2018-08-27T18:23:39.800Z,74.20
2018-08-27T18:26:08.417Z,74.40
2018-08-27T18:28:36.983Z,74.60
2018-08-27T18:31:05.613Z,74.80
2018-08-27T18:33:34.089Z,75.30
2018-08-27T18:36:02.658Z,75.60
2018-08-27T18:38:31.224Z,75.90
2018-08-27T18:40:59.798Z,75.90
2018-08-27T18:43:28.560Z,75.80
2018-08-27T18:45:57.015Z,76.00
2018-08-27T18:48:25.828Z,76.70
2018-08-27T18:50:54.272Z,76.00
2018-08-27T18:53:22.818Z,76.00
2018-08-27T18:55:51.377Z,76.10
2018-08-27T18:58:19.806Z,76.70
2018-08-27T19:00:48.728Z,76.10
2018-08-27T19:03:18.894Z,76.60
2018-08-27T19:05:47.379Z,77.00
2018-08-27T19:08:17.462Z,76.70
2018-08-27T19:10:45.918Z,77.30
2018-08-27T19:13:14.434Z,77.10
2018-08-27T19:15:43.182Z,76.90
2018-08-27T19:18:11.796Z,77.50
2018-08-27T19:20:40.560Z,77.50
2018-08-27T19:23:09.208Z,77.40
2018-08-27T19:25:37.907Z,77.50
2018-08-27T19:28:06.666Z,77.50
2018-08-27T19:30:35.884Z,77.80
2018-08-27T19:33:04.385Z,77.70
2018-08-27T19:35:33.510Z,78.20
2018-08-27T19:38:02.068Z,78.90
2018-08-27T19:40:30.592Z,78.40
2018-08-27T19:42:59.179Z,78.00
2018-08-27T19:45:27.964Z,78.20
2018-08-27T19:47:56.470Z,78.00
2018-08-27T19:50:25.030Z,77.80
2018-08-27T19:52:54.517Z,77.90
2018-08-27T19:55:23.068Z,77.40
2018-08-27T19:57:51.639Z,77.70
2018-08-27T20:00:20.060Z,77.30
2018-08-27T20:02:48.500Z,78.10
2018-08-27T20:05:16.962Z,77.30
2018-08-27T20:07:45.421Z,77.50
2018-08-27T20:10:14.118Z,78.00
2018-08-27T20:12:42.648Z,78.20
2018-08-27T20:15:11.182Z,77.80
2018-08-27T20:17:39.896Z,78.20
2018-08-27T20:20:08.474Z,78.30
2018-08-27T20:22:37.039Z,78.70
2018-08-27T20:25:05.964Z,78.90
2018-08-27T20:27:34.442Z,79.10
2018-08-27T20:30:03.028Z,79.30
2018-08-27T20:32:31.568Z,79.50
2018-08-27T20:35:00.069Z,79.90
2018-08-27T20:37:29.654Z,80.40
2018-08-27T20:39:58.140Z,80.20
2018-08-27T20:42:27.117Z,80.40
2018-08-27T20:44:55.680Z,80.70
2018-08-27T20:47:24.337Z,80.90
2018-08-27T20:49:52.951Z,80.70
2018-08-27T20:52:21.705Z,81.00
2018-08-27T20:54:50.163Z,81.20
2018-08-27T20:57:18.657Z,81.20
2018-08-27T20:59:47.101Z,81.30
2018-08-27T21:02:15.595Z,81.50
2018-08-27T21:04:44.149Z,81.30
2018-08-27T21:07:12.759Z,81.40
2018-08-27T21:09:41.223Z,81.50
2018-08-27T21:12:09.796Z,81.80
2018-08-27T21:14:47.509Z,82.00
2018-08-27T21:17:15.973Z,82.30
2018-08-27T21:19:44.466Z,82.00
2018-08-27T21:22:12.926Z,82.20
2018-08-27T21:24:41.449Z,82.30
2018-08-27T21:27:09.905Z,82.60
2018-08-27T21:29:38.513Z,82.50
2018-08-27T21:32:07.579Z,82.60
2018-08-27T21:34:36.085Z,82.70
2018-08-27T21:37:04.737Z,82.80
2018-08-27T21:39:33.190Z,83.10
2018-08-27T21:42:01.796Z,82.90
2018-08-27T21:44:30.199Z,83.10
2018-08-27T21:46:59.893Z,83.60
2018-08-27T21:49:28.350Z,83.80
2018-08-27T21:51:56.820Z,83.40
2018-08-27T21:54:25.322Z,83.40
2018-08-27T21:56:53.792Z,83.80
2018-08-27T21:59:22.321Z,83.90
2018-08-27T22:01:50.817Z,84.10
2018-08-27T22:04:19.271Z,84.40
2018-08-27T22:06:47.913Z,84.40
2018-08-27T22:09:16.517Z,84.10
2018-08-27T22:11:44.971Z,84.10
2018-08-27T22:14:13.477Z,84.10
2018-08-27T22:16:42.015Z,84.40
2018-08-27T22:19:10.514Z,84.40
2018-08-27T22:21:38.971Z,84.30
2018-08-27T22:24:07.535Z,84.40
2018-08-27T22:26:36.095Z,84.10
2018-08-27T22:29:04.632Z,83.90
2018-08-27T22:31:34.161Z,84.10
2018-08-27T22:34:02.657Z,84.20
2018-08-27T22:36:31.085Z,84.30
2018-08-27T22:38:59.620Z,84.30
2018-08-27T22:41:28.049Z,84.40
2018-08-27T22:43:56.620Z,84.70
2018-08-27T22:46:25.437Z,84.70
2018-08-27T22:48:53.867Z,84.80
2018-08-27T22:51:22.333Z,84.90
2018-08-27T22:53:50.835Z,85.20
2018-08-27T22:56:19.267Z,85.10
2018-08-27T22:58:48.053Z,85.20
2018-08-27T23:01:16.497Z,85.30
2018-08-27T23:03:51.019Z,85.30
2018-08-27T23:06:19.443Z,85.40
2018-08-27T23:08:47.939Z,85.20
2018-08-27T23:11:16.497Z,86.10
2018-08-27T23:13:45.066Z,85.40
2018-08-27T23:16:18.657Z,85.50
2018-08-27T23:18:47.195Z,85.80
2018-08-27T23:21:15.737Z,86.00
2018-08-27T23:23:44.208Z,86.00
2018-08-27T23:26:12.638Z,86.20
2018-08-27T23:28:41.136Z,86.40
2018-08-27T23:31:09.604Z,86.20
2018-08-27T23:33:38.282Z,86.60
2018-08-27T23:36:07.122Z,86.50
2018-08-27T23:38:35.602Z,86.40
2018-08-27T23:41:04.025Z,86.80
2018-08-27T23:43:32.664Z,86.70
2018-08-27T23:46:01.340Z,86.70
2018-08-27T23:48:29.780Z,87.00
2018-08-27T23:50:58.200Z,86.90
2018-08-27T23:53:26.722Z,87.20
2018-08-27T23:55:55.200Z,87.30
2018-08-27T23:58:23.663Z,87.50
